Decoded Metar for UWSS (SARATOV/TSENTRAL in RUSSIA) (IATA:N/A) | Meteo·Mobile Aviation Weather
aviador You're here:

UWSS Decoded Metar

SARATOV/TSENTRAL in RUSSIA
Report Time2019-07-21 16:30:00
UTC Time2019-07-21 16:51:57
Flight Rules vfr VFR
Wind300° at 8 kt
W.Decomp.*RWY 30: 7.9 kt HW 1.4 kt LCW
Visibility9999 m
Phenomena:N/A
Clouds:N/A
Expected CloudBase > 7,200 ft AGL from Temp-Dew spread
CeilingNone
Temp27°C (ISA +13)
Dew Point09°C (32% RH)
Heat Index26.5°C
AAT23.9°C
QNH1015 hPa
Density Alt2,142 ft
Elevation545 ft
Report Wrong Elevation
Raw Report
UWSS 211630Z 30004MPS CAVOK 27/09 Q1015 R30/010095 NOSIG RMK
QFE748=

Extra information for UWSS:More info

Metar Taf Metar & Taf Last 4 Metars F.Rules Stats Wind Profile Meteogram Temp Stats Airport Information Weather charts Add Link Nearby VenuesMetar ALERT Operation Metar Decoded Social comments